sensor_id;sensor_type;location;lat;lon;timestamp;temperature;humidity
7014;DHT22;3547;50.774;12.918;2023-08-17T00:00:18;20.00;1.00
7014;DHT22;3547;50.774;12.918;2023-08-17T00:02:45;20.00;1.00
7014;DHT22;3547;50.774;12.918;2023-08-17T00:05:11;20.00;1.00
7014;DHT22;3547;50.774;12.918;2023-08-17T00:07:42;20.00;1.00
7014;DHT22;3547;50.774;12.918;2023-08-17T00:10:09;20.00;1.00
7014;DHT22;3547;50.774;12.918;2023-08-17T00:12:38;20.10;1.00
7014;DHT22;3547;50.774;12.918;2023-08-17T00:15:05;20.10;1.00
7014;DHT22;3547;50.774;12.918;2023-08-17T00:17:32;20.10;1.00
7014;DHT22;3547;50.774;12.918;2023-08-17T00:19:58;20.10;1.00
7014;DHT22;3547;50.774;12.918;2023-08-17T00:22:25;20.00;1.00
7014;DHT22;3547;50.774;12.918;2023-08-17T00:24:51;20.00;1.00
7014;DHT22;3547;50.774;12.918;2023-08-17T00:27:18;20.00;1.00
7014;DHT22;3547;50.774;12.918;2023-08-17T00:29:44;19.90;1.00
7014;DHT22;3547;50.774;12.918;2023-08-17T00:32:13;19.90;1.00
7014;DHT22;3547;50.774;12.918;2023-08-17T00:34:40;19.90;1.00
7014;DHT22;3547;50.774;12.918;2023-08-17T00:37:09;19.80;1.00
7014;DHT22;3547;50.774;12.918;2023-08-17T00:39:36;19.80;1.00
7014;DHT22;3547;50.774;12.918;2023-08-17T00:42:02;19.70;1.00
7014;DHT22;3547;50.774;12.918;2023-08-17T00:44:32;19.70;1.00
7014;DHT22;3547;50.774;12.918;2023-08-17T00:47:01;19.70;1.00
7014;DHT22;3547;50.774;12.918;2023-08-17T00:49:31;19.60;1.00
7014;DHT22;3547;50.774;12.918;2023-08-17T00:52:02;19.60;1.00
7014;DHT22;3547;50.774;12.918;2023-08-17T00:54:29;19.60;1.00
7014;DHT22;3547;50.774;12.918;2023-08-17T00:56:56;19.60;1.00
7014;DHT22;3547;50.774;12.918;2023-08-17T00:59:23;19.50;1.00
7014;DHT22;3547;50.774;12.918;2023-08-17T01:01:54;19.60;1.00
7014;DHT22;3547;50.774;12.918;2023-08-17T01:04:21;19.60;1.00
7014;DHT22;3547;50.774;12.918;2023-08-17T01:06:48;19.50;1.00
7014;DHT22;3547;50.774;12.918;2023-08-17T01:09:14;19.50;1.00
7014;DHT22;3547;50.774;12.918;2023-08-17T01:11:48;19.50;1.00
7014;DHT22;3547;50.774;12.918;2023-08-17T01:14:37;19.40;1.00
7014;DHT22;3547;50.774;12.918;2023-08-17T01:20:28;19.30;1.00
7014;DHT22;3547;50.774;12.918;2023-08-17T01:22:56;19.20;1.00
7014;DHT22;3547;50.774;12.918;2023-08-17T01:25:27;19.30;1.00
7014;DHT22;3547;50.774;12.918;2023-08-17T01:27:59;19.20;1.00
7014;DHT22;3547;50.774;12.918;2023-08-17T01:30:33;19.30;1.00
7014;DHT22;3547;50.774;12.918;2023-08-17T01:33:11;19.30;1.00
7014;DHT22;3547;50.774;12.918;2023-08-17T01:36:06;19.30;1.00
7014;DHT22;3547;50.774;12.918;2023-08-17T01:38:38;19.30;1.00
7014;DHT22;3547;50.774;12.918;2023-08-17T01:41:08;19.20;1.00
7014;DHT22;3547;50.774;12.918;2023-08-17T01:43:45;19.20;1.00
7014;DHT22;3547;50.774;12.918;2023-08-17T01:46:16;19.30;1.00
7014;DHT22;3547;50.774;12.918;2023-08-17T01:48:45;19.30;1.00
7014;DHT22;3547;50.774;12.918;2023-08-17T01:51:23;19.30;1.00
7014;DHT22;3547;50.774;12.918;2023-08-17T01:53:58;19.30;1.00
7014;DHT22;3547;50.774;12.918;2023-08-17T01:56:24;19.30;1.00
7014;DHT22;3547;50.774;12.918;2023-08-17T01:58:54;19.30;1.00
7014;DHT22;3547;50.774;12.918;2023-08-17T02:01:24;19.30;1.00
7014;DHT22;3547;50.774;12.918;2023-08-17T02:03:52;19.30;1.00
7014;DHT22;3547;50.774;12.918;2023-08-17T02:06:21;19.20;1.00
7014;DHT22;3547;50.774;12.918;2023-08-17T02:08:53;19.20;1.00
7014;DHT22;3547;50.774;12.918;2023-08-17T02:11:22;19.00;1.00
7014;DHT22;3547;50.774;12.918;2023-08-17T02:14:17;19.00;1.00
7014;DHT22;3547;50.774;12.918;2023-08-17T02:16:49;18.90;1.00
7014;DHT22;3547;50.774;12.918;2023-08-17T02:19:19;18.90;1.00
7014;DHT22;3547;50.774;12.918;2023-08-17T02:21:46;18.80;1.00
7014;DHT22;3547;50.774;12.918;2023-08-17T02:24:13;18.80;1.00
7014;DHT22;3547;50.774;12.918;2023-08-17T02:26:45;18.80;1.00
7014;DHT22;3547;50.774;12.918;2023-08-17T02:29:15;18.70;1.00
7014;DHT22;3547;50.774;12.918;2023-08-17T02:31:42;18.80;1.00
7014;DHT22;3547;50.774;12.918;2023-08-17T02:34:11;18.80;1.00
7014;DHT22;3547;50.774;12.918;2023-08-17T02:36:39;18.80;1.00
7014;DHT22;3547;50.774;12.918;2023-08-17T02:39:06;18.70;1.00
7014;DHT22;3547;50.774;12.918;2023-08-17T02:41:36;18.60;1.00
7014;DHT22;3547;50.774;12.918;2023-08-17T02:44:02;18.70;1.00
7014;DHT22;3547;50.774;12.918;2023-08-17T02:46:33;18.70;1.00
7014;DHT22;3547;50.774;12.918;2023-08-17T02:49:02;18.60;1.00
7014;DHT22;3547;50.774;12.918;2023-08-17T02:51:28;18.60;1.00
7014;DHT22;3547;50.774;12.918;2023-08-17T02:53:58;18.60;1.00
7014;DHT22;3547;50.774;12.918;2023-08-17T02:56:25;18.70;1.00
7014;DHT22;3547;50.774;12.918;2023-08-17T02:58:52;18.70;1.00
7014;DHT22;3547;50.774;12.918;2023-08-17T03:01:18;18.70;1.00
7014;DHT22;3547;50.774;12.918;2023-08-17T03:03:45;18.70;1.00
7014;DHT22;3547;50.774;12.918;2023-08-17T03:06:11;18.70;1.00
7014;DHT22;3547;50.774;12.918;2023-08-17T03:12:00;18.60;1.00
7014;DHT22;3547;50.774;12.918;2023-08-17T03:14:26;18.50;1.00
7014;DHT22;3547;50.774;12.918;2023-08-17T03:16:55;18.40;1.00
7014;DHT22;3547;50.774;12.918;2023-08-17T03:19:21;18.30;1.00
7014;DHT22;3547;50.774;12.918;2023-08-17T03:21:55;18.30;1.00
7014;DHT22;3547;50.774;12.918;2023-08-17T03:24:27;18.30;1.00
7014;DHT22;3547;50.774;12.918;2023-08-17T03:26:54;18.40;1.00
7014;DHT22;3547;50.774;12.918;2023-08-17T03:29:23;18.40;1.00
7014;DHT22;3547;50.774;12.918;2023-08-17T03:31:56;18.40;1.00
7014;DHT22;3547;50.774;12.918;2023-08-17T03:34:23;18.40;1.00
7014;DHT22;3547;50.774;12.918;2023-08-17T03:36:57;18.40;1.00
7014;DHT22;3547;50.774;12.918;2023-08-17T03:39:24;18.30;1.00
7014;DHT22;3547;50.774;12.918;2023-08-17T03:41:50;18.40;1.00
7014;DHT22;3547;50.774;12.918;2023-08-17T03:44:17;18.50;1.00
7014;DHT22;3547;50.774;12.918;2023-08-17T03:46:53;18.60;1.00
7014;DHT22;3547;50.774;12.918;2023-08-17T03:49:29;18.60;1.00
7014;DHT22;3547;50.774;12.918;2023-08-17T03:51:56;18.70;1.00
7014;DHT22;3547;50.774;12.918;2023-08-17T03:54:26;18.70;1.00
7014;DHT22;3547;50.774;12.918;2023-08-17T03:56:52;18.70;1.00
7014;DHT22;3547;50.774;12.918;2023-08-17T03:59:21;18.80;1.00
7014;DHT22;3547;50.774;12.918;2023-08-17T04:01:50;18.80;1.90
7014;DHT22;3547;50.774;12.918;2023-08-17T04:04:27;18.80;1.00
7014;DHT22;3547;50.774;12.918;2023-08-17T04:06:54;18.90;1.00
7014;DHT22;3547;50.774;12.918;2023-08-17T04:09:26;19.00;1.00
7014;DHT22;3547;50.774;12.918;2023-08-17T04:12:02;19.10;1.00
7014;DHT22;3547;50.774;12.918;2023-08-17T04:14:31;19.10;1.00
7014;DHT22;3547;50.774;12.918;2023-08-17T04:16:57;19.10;1.00
7014;DHT22;3547;50.774;12.918;2023-08-17T04:19:26;19.10;1.00
7014;DHT22;3547;50.774;12.918;2023-08-17T04:21:53;19.20;1.00
7014;DHT22;3547;50.774;12.918;2023-08-17T04:24:20;19.20;1.00
7014;DHT22;3547;50.774;12.918;2023-08-17T04:26:47;19.20;1.00
7014;DHT22;3547;50.774;12.918;2023-08-17T04:29:16;19.30;1.00
7014;DHT22;3547;50.774;12.918;2023-08-17T04:31:48;19.30;1.00
7014;DHT22;3547;50.774;12.918;2023-08-17T04:34:18;19.30;1.00
7014;DHT22;3547;50.774;12.918;2023-08-17T04:36:44;19.30;1.00
7014;DHT22;3547;50.774;12.918;2023-08-17T04:39:11;19.40;1.00
7014;DHT22;3547;50.774;12.918;2023-08-17T04:41:49;19.40;1.00
7014;DHT22;3547;50.774;12.918;2023-08-17T04:44:15;19.30;1.00
7014;DHT22;3547;50.774;12.918;2023-08-17T04:46:45;19.30;1.00
7014;DHT22;3547;50.774;12.918;2023-08-17T04:49:12;19.30;1.00
7014;DHT22;3547;50.774;12.918;2023-08-17T04:51:38;19.30;1.00
7014;DHT22;3547;50.774;12.918;2023-08-17T04:54:05;19.40;1.00
7014;DHT22;3547;50.774;12.918;2023-08-17T04:56:31;19.30;1.00
7014;DHT22;3547;50.774;12.918;2023-08-17T04:59:00;19.30;1.00
7014;DHT22;3547;50.774;12.918;2023-08-17T05:01:26;19.20;1.00
7014;DHT22;3547;50.774;12.918;2023-08-17T05:03:53;19.10;1.00
7014;DHT22;3547;50.774;12.918;2023-08-17T05:06:22;19.20;1.00
7014;DHT22;3547;50.774;12.918;2023-08-17T05:08:50;19.30;1.00
7014;DHT22;3547;50.774;12.918;2023-08-17T05:11:17;19.30;1.00
7014;DHT22;3547;50.774;12.918;2023-08-17T05:13:46;19.30;1.00
7014;DHT22;3547;50.774;12.918;2023-08-17T05:16:13;19.40;1.00
7014;DHT22;3547;50.774;12.918;2023-08-17T05:18:46;19.40;1.00
7014;DHT22;3547;50.774;12.918;2023-08-17T05:21:15;19.50;1.00
7014;DHT22;3547;50.774;12.918;2023-08-17T05:23:42;19.50;1.00
7014;DHT22;3547;50.774;12.918;2023-08-17T05:26:10;19.60;1.00
7014;DHT22;3547;50.774;12.918;2023-08-17T05:28:37;19.40;1.00
7014;DHT22;3547;50.774;12.918;2023-08-17T05:31:06;19.40;1.00
7014;DHT22;3547;50.774;12.918;2023-08-17T05:33:33;19.40;1.00
7014;DHT22;3547;50.774;12.918;2023-08-17T05:36:00;19.30;1.00
7014;DHT22;3547;50.774;12.918;2023-08-17T05:38:26;19.30;1.00
7014;DHT22;3547;50.774;12.918;2023-08-17T05:40:57;19.30;1.00
7014;DHT22;3547;50.774;12.918;2023-08-17T05:43:24;19.30;1.00
7014;DHT22;3547;50.774;12.918;2023-08-17T05:45:50;19.40;1.00
7014;DHT22;3547;50.774;12.918;2023-08-17T05:48:19;19.40;1.00
7014;DHT22;3547;50.774;12.918;2023-08-17T05:50:49;19.40;1.00
7014;DHT22;3547;50.774;12.918;2023-08-17T05:53:16;19.30;1.00
7014;DHT22;3547;50.774;12.918;2023-08-17T05:55:48;19.40;1.00
7014;DHT22;3547;50.774;12.918;2023-08-17T05:58:19;19.50;1.00
7014;DHT22;3547;50.774;12.918;2023-08-17T06:00:46;19.60;1.00
7014;DHT22;3547;50.774;12.918;2023-08-17T06:03:12;19.80;1.00
7014;DHT22;3547;50.774;12.918;2023-08-17T06:05:39;19.90;1.00
7014;DHT22;3547;50.774;12.918;2023-08-17T06:08:06;19.90;1.00
7014;DHT22;3547;50.774;12.918;2023-08-17T06:10:33;20.00;1.00
7014;DHT22;3547;50.774;12.918;2023-08-17T06:12:59;20.00;1.00
7014;DHT22;3547;50.774;12.918;2023-08-17T06:15:26;20.00;1.00
7014;DHT22;3547;50.774;12.918;2023-08-17T06:17:52;20.00;1.00
7014;DHT22;3547;50.774;12.918;2023-08-17T06:20:19;20.10;1.00
7014;DHT22;3547;50.774;12.918;2023-08-17T06:22:47;20.30;1.00
7014;DHT22;3547;50.774;12.918;2023-08-17T06:25:14;20.40;1.00
7014;DHT22;3547;50.774;12.918;2023-08-17T06:27:41;20.50;1.00
7014;DHT22;3547;50.774;12.918;2023-08-17T06:30:10;20.70;1.00
7014;DHT22;3547;50.774;12.918;2023-08-17T06:32:36;20.90;1.00
7014;DHT22;3547;50.774;12.918;2023-08-17T06:35:03;21.00;1.00
7014;DHT22;3547;50.774;12.918;2023-08-17T06:37:32;21.20;1.00
7014;DHT22;3547;50.774;12.918;2023-08-17T06:39:59;21.40;1.00
7014;DHT22;3547;50.774;12.918;2023-08-17T06:42:28;21.50;1.00
7014;DHT22;3547;50.774;12.918;2023-08-17T06:44:55;21.60;1.00
7014;DHT22;3547;50.774;12.918;2023-08-17T06:47:22;21.70;1.00
7014;DHT22;3547;50.774;12.918;2023-08-17T06:49:52;21.90;1.00
7014;DHT22;3547;50.774;12.918;2023-08-17T06:52:18;22.00;1.00
7014;DHT22;3547;50.774;12.918;2023-08-17T06:54:48;22.10;1.00
7014;DHT22;3547;50.774;12.918;2023-08-17T06:57:18;22.20;1.00
7014;DHT22;3547;50.774;12.918;2023-08-17T06:59:48;22.20;1.00
7014;DHT22;3547;50.774;12.918;2023-08-17T07:02:15;22.10;1.00
7014;DHT22;3547;50.774;12.918;2023-08-17T07:04:45;22.10;1.00
7014;DHT22;3547;50.774;12.918;2023-08-17T07:07:16;22.10;1.00
7014;DHT22;3547;50.774;12.918;2023-08-17T07:09:42;22.20;1.00
7014;DHT22;3547;50.774;12.918;2023-08-17T07:12:09;22.10;1.00
7014;DHT22;3547;50.774;12.918;2023-08-17T07:14:41;22.10;1.00
7014;DHT22;3547;50.774;12.918;2023-08-17T07:17:08;22.10;1.00
7014;DHT22;3547;50.774;12.918;2023-08-17T07:19:37;22.10;1.00
7014;DHT22;3547;50.774;12.918;2023-08-17T07:22:05;22.20;1.00
7014;DHT22;3547;50.774;12.918;2023-08-17T07:24:32;22.20;1.00
7014;DHT22;3547;50.774;12.918;2023-08-17T07:26:58;22.30;1.00
7014;DHT22;3547;50.774;12.918;2023-08-17T07:29:36;22.30;1.00
7014;DHT22;3547;50.774;12.918;2023-08-17T07:32:05;22.40;1.00
7014;DHT22;3547;50.774;12.918;2023-08-17T07:34:32;22.50;1.00
7014;DHT22;3547;50.774;12.918;2023-08-17T07:37:04;22.60;1.00
7014;DHT22;3547;50.774;12.918;2023-08-17T07:39:32;22.70;1.00
7014;DHT22;3547;50.774;12.918;2023-08-17T07:42:13;22.70;1.00
7014;DHT22;3547;50.774;12.918;2023-08-17T07:44:44;22.70;1.00
7014;DHT22;3547;50.774;12.918;2023-08-17T07:47:11;22.80;1.00
7014;DHT22;3547;50.774;12.918;2023-08-17T07:49:38;22.80;1.00
7014;DHT22;3547;50.774;12.918;2023-08-17T07:52:04;22.70;1.00
7014;DHT22;3547;50.774;12.918;2023-08-17T07:54:31;22.70;1.00
7014;DHT22;3547;50.774;12.918;2023-08-17T07:57:02;22.80;1.00
7014;DHT22;3547;50.774;12.918;2023-08-17T07:59:32;22.90;1.00
7014;DHT22;3547;50.774;12.918;2023-08-17T08:05:23;23.10;1.00
7014;DHT22;3547;50.774;12.918;2023-08-17T08:07:54;23.30;1.00
7014;DHT22;3547;50.774;12.918;2023-08-17T08:10:34;23.50;1.00
7014;DHT22;3547;50.774;12.918;2023-08-17T08:13:40;23.60;1.00
7014;DHT22;3547;50.774;12.918;2023-08-17T09:38:09;24.80;1.00
7014;DHT22;3547;50.774;12.918;2023-08-17T12:34:48;27.50;1.00
7014;DHT22;3547;50.774;12.918;2023-08-17T12:37:19;27.40;1.00
7014;DHT22;3547;50.774;12.918;2023-08-17T12:39:47;27.40;1.00
7014;DHT22;3547;50.774;12.918;2023-08-17T12:42:14;27.40;1.00
7014;DHT22;3547;50.774;12.918;2023-08-17T12:44:41;27.30;1.00
7014;DHT22;3547;50.774;12.918;2023-08-17T12:50:30;27.20;1.00
7014;DHT22;3547;50.774;12.918;2023-08-17T12:52:56;27.10;1.00
7014;DHT22;3547;50.774;12.918;2023-08-17T12:55:22;27.00;1.00
7014;DHT22;3547;50.774;12.918;2023-08-17T12:57:48;26.90;1.00
7014;DHT22;3547;50.774;12.918;2023-08-17T13:00:15;26.90;1.00
7014;DHT22;3547;50.774;12.918;2023-08-17T13:02:41;26.90;1.00
7014;DHT22;3547;50.774;12.918;2023-08-17T13:05:07;26.80;1.00
7014;DHT22;3547;50.774;12.918;2023-08-17T13:07:33;26.60;1.00
7014;DHT22;3547;50.774;12.918;2023-08-17T13:10:00;26.50;1.00
7014;DHT22;3547;50.774;12.918;2023-08-17T13:12:26;26.40;1.00
7014;DHT22;3547;50.774;12.918;2023-08-17T13:14:52;26.40;1.00
7014;DHT22;3547;50.774;12.918;2023-08-17T13:17:18;26.40;1.00
7014;DHT22;3547;50.774;12.918;2023-08-17T13:19:44;26.40;1.00
7014;DHT22;3547;50.774;12.918;2023-08-17T13:22:10;26.40;1.00
7014;DHT22;3547;50.774;12.918;2023-08-17T13:24:37;26.30;1.00
7014;DHT22;3547;50.774;12.918;2023-08-17T13:27:03;26.10;1.00
7014;DHT22;3547;50.774;12.918;2023-08-17T13:29:30;26.10;1.00
7014;DHT22;3547;50.774;12.918;2023-08-17T13:31:56;26.10;1.00
7014;DHT22;3547;50.774;12.918;2023-08-17T13:34:22;26.00;1.00
7014;DHT22;3547;50.774;12.918;2023-08-17T13:36:48;26.00;1.00
7014;DHT22;3547;50.774;12.918;2023-08-17T13:39:14;26.00;1.00
7014;DHT22;3547;50.774;12.918;2023-08-17T13:41:41;26.00;1.00
7014;DHT22;3547;50.774;12.918;2023-08-17T13:44:08;26.00;1.00
7014;DHT22;3547;50.774;12.918;2023-08-17T13:46:35;26.00;1.00
7014;DHT22;3547;50.774;12.918;2023-08-17T13:49:01;26.00;1.00
7014;DHT22;3547;50.774;12.918;2023-08-17T13:51:27;26.10;1.00
7014;DHT22;3547;50.774;12.918;2023-08-17T13:53:53;26.20;1.00
7014;DHT22;3547;50.774;12.918;2023-08-17T13:56:19;26.30;1.00
7014;DHT22;3547;50.774;12.918;2023-08-17T14:02:08;27.00;1.00
7014;DHT22;3547;50.774;12.918;2023-08-17T14:04:34;27.60;1.00
7014;DHT22;3547;50.774;12.918;2023-08-17T14:07:00;27.60;1.00
7014;DHT22;3547;50.774;12.918;2023-08-17T14:09:27;27.50;1.00
7014;DHT22;3547;50.774;12.918;2023-08-17T14:11:53;27.60;1.00
7014;DHT22;3547;50.774;12.918;2023-08-17T14:14:19;27.70;1.00
7014;DHT22;3547;50.774;12.918;2023-08-17T14:16:46;27.80;1.00
7014;DHT22;3547;50.774;12.918;2023-08-17T14:19:12;28.20;1.00
7014;DHT22;3547;50.774;12.918;2023-08-17T14:21:38;28.80;1.00
7014;DHT22;3547;50.774;12.918;2023-08-17T14:24:05;28.70;1.00
7014;DHT22;3547;50.774;12.918;2023-08-17T14:26:32;28.40;1.00
7014;DHT22;3547;50.774;12.918;2023-08-17T14:28:58;28.20;1.00
7014;DHT22;3547;50.774;12.918;2023-08-17T14:31:24;27.90;1.00
7014;DHT22;3547;50.774;12.918;2023-08-17T14:33:51;27.60;1.00
7014;DHT22;3547;50.774;12.918;2023-08-17T14:36:17;27.30;1.00
7014;DHT22;3547;50.774;12.918;2023-08-17T14:38:43;27.20;1.00
7014;DHT22;3547;50.774;12.918;2023-08-17T14:41:09;27.10;1.00
7014;DHT22;3547;50.774;12.918;2023-08-17T14:43:35;27.00;1.00
7014;DHT22;3547;50.774;12.918;2023-08-17T14:46:02;26.80;1.00
7014;DHT22;3547;50.774;12.918;2023-08-17T14:48:28;26.60;1.00
7014;DHT22;3547;50.774;12.918;2023-08-17T14:50:55;26.50;1.00
7014;DHT22;3547;50.774;12.918;2023-08-17T14:53:21;26.50;1.00
7014;DHT22;3547;50.774;12.918;2023-08-17T14:55:48;26.30;1.00
7014;DHT22;3547;50.774;12.918;2023-08-17T14:58:14;26.10;1.00
7014;DHT22;3547;50.774;12.918;2023-08-17T15:00:41;26.10;1.00
7014;DHT22;3547;50.774;12.918;2023-08-17T15:03:07;26.10;1.00
7014;DHT22;3547;50.774;12.918;2023-08-17T15:05:33;26.10;1.00
7014;DHT22;3547;50.774;12.918;2023-08-17T15:08:02;26.10;1.00
7014;DHT22;3547;50.774;12.918;2023-08-17T15:10:29;26.10;1.00
7014;DHT22;3547;50.774;12.918;2023-08-17T15:12:56;26.10;1.00
7014;DHT22;3547;50.774;12.918;2023-08-17T15:15:22;26.10;1.00
7014;DHT22;3547;50.774;12.918;2023-08-17T15:17:48;26.00;1.00
7014;DHT22;3547;50.774;12.918;2023-08-17T15:20:14;25.80;1.00
7014;DHT22;3547;50.774;12.918;2023-08-17T15:22:40;25.60;1.00
7014;DHT22;3547;50.774;12.918;2023-08-17T15:25:07;25.40;1.00
7014;DHT22;3547;50.774;12.918;2023-08-17T15:27:33;25.20;1.00
7014;DHT22;3547;50.774;12.918;2023-08-17T15:30:00;25.20;1.00
7014;DHT22;3547;50.774;12.918;2023-08-17T15:32:26;25.00;1.00
7014;DHT22;3547;50.774;12.918;2023-08-17T15:34:52;24.90;1.00
7014;DHT22;3547;50.774;12.918;2023-08-17T15:37:20;24.70;1.00
7014;DHT22;3547;50.774;12.918;2023-08-17T15:39:46;24.60;1.00
7014;DHT22;3547;50.774;12.918;2023-08-17T15:42:12;24.50;1.00
7014;DHT22;3547;50.774;12.918;2023-08-17T15:44:38;24.40;1.00
7014;DHT22;3547;50.774;12.918;2023-08-17T15:47:05;24.30;1.00
7014;DHT22;3547;50.774;12.918;2023-08-17T15:49:31;24.20;1.00
7014;DHT22;3547;50.774;12.918;2023-08-17T15:51:57;24.20;1.00
7014;DHT22;3547;50.774;12.918;2023-08-17T15:54:23;24.10;1.00
7014;DHT22;3547;50.774;12.918;2023-08-17T15:56:51;24.00;1.00
7014;DHT22;3547;50.774;12.918;2023-08-17T15:59:17;24.00;1.00
7014;DHT22;3547;50.774;12.918;2023-08-17T16:01:43;23.90;1.00
7014;DHT22;3547;50.774;12.918;2023-08-17T16:04:10;23.90;1.00
7014;DHT22;3547;50.774;12.918;2023-08-17T16:06:36;23.80;1.00
7014;DHT22;3547;50.774;12.918;2023-08-17T16:09:11;23.80;1.00
7014;DHT22;3547;50.774;12.918;2023-08-17T16:11:37;23.70;1.00
7014;DHT22;3547;50.774;12.918;2023-08-17T16:14:09;23.70;1.00
7014;DHT22;3547;50.774;12.918;2023-08-17T16:16:36;23.70;1.00
7014;DHT22;3547;50.774;12.918;2023-08-17T16:19:02;23.60;1.00
7014;DHT22;3547;50.774;12.918;2023-08-17T16:21:29;23.50;1.00
7014;DHT22;3547;50.774;12.918;2023-08-17T16:23:55;23.50;1.00
7014;DHT22;3547;50.774;12.918;2023-08-17T16:26:21;23.40;1.00
7014;DHT22;3547;50.774;12.918;2023-08-17T17:30:05;22.70;1.00
7014;DHT22;3547;50.774;12.918;2023-08-17T17:32:32;22.60;1.00
7014;DHT22;3547;50.774;12.918;2023-08-17T17:34:58;22.60;1.00
7014;DHT22;3547;50.774;12.918;2023-08-17T17:37:24;22.60;1.00
7014;DHT22;3547;50.774;12.918;2023-08-17T17:42:30;22.50;1.00
7014;DHT22;3547;50.774;12.918;2023-08-17T17:44:56;22.50;1.00
7014;DHT22;3547;50.774;12.918;2023-08-17T17:47:25;22.40;1.00
7014;DHT22;3547;50.774;12.918;2023-08-17T17:49:53;22.30;1.00
7014;DHT22;3547;50.774;12.918;2023-08-17T17:52:19;22.30;1.00
7014;DHT22;3547;50.774;12.918;2023-08-17T17:54:45;22.20;1.00
7014;DHT22;3547;50.774;12.918;2023-08-17T17:57:11;22.20;1.00
7014;DHT22;3547;50.774;12.918;2023-08-17T17:59:40;22.10;1.00
7014;DHT22;3547;50.774;12.918;2023-08-17T18:02:06;22.10;1.00
7014;DHT22;3547;50.774;12.918;2023-08-17T18:04:36;22.00;1.00
7014;DHT22;3547;50.774;12.918;2023-08-17T18:07:08;22.10;1.00
7014;DHT22;3547;50.774;12.918;2023-08-17T18:09:35;22.10;1.00
7014;DHT22;3547;50.774;12.918;2023-08-17T18:12:21;22.10;1.00
7014;DHT22;3547;50.774;12.918;2023-08-17T18:14:55;22.00;1.00
7014;DHT22;3547;50.774;12.918;2023-08-17T18:31:17;21.80;1.00
7014;DHT22;3547;50.774;12.918;2023-08-17T18:33:49;21.70;1.00
7014;DHT22;3547;50.774;12.918;2023-08-17T18:36:16;21.80;1.00
7014;DHT22;3547;50.774;12.918;2023-08-17T18:38:42;21.70;1.00
7014;DHT22;3547;50.774;12.918;2023-08-17T18:41:09;21.70;1.00
7014;DHT22;3547;50.774;12.918;2023-08-17T18:43:36;21.60;1.00
7014;DHT22;3547;50.774;12.918;2023-08-17T18:46:03;21.50;1.00
7014;DHT22;3547;50.774;12.918;2023-08-17T18:48:30;21.50;1.00
7014;DHT22;3547;50.774;12.918;2023-08-17T18:50:57;21.50;1.00
7014;DHT22;3547;50.774;12.918;2023-08-17T18:53:23;21.40;1.00
7014;DHT22;3547;50.774;12.918;2023-08-17T18:55:50;21.40;1.00
7014;DHT22;3547;50.774;12.918;2023-08-17T19:22:29;21.70;1.00
7014;DHT22;3547;50.774;12.918;2023-08-17T19:25:01;21.60;1.00
7014;DHT22;3547;50.774;12.918;2023-08-17T19:27:35;21.70;1.00
7014;DHT22;3547;50.774;12.918;2023-08-17T19:30:09;21.70;1.00
7014;DHT22;3547;50.774;12.918;2023-08-17T19:32:38;21.80;1.00
7014;DHT22;3547;50.774;12.918;2023-08-17T19:40:31;21.60;1.00
7014;DHT22;3547;50.774;12.918;2023-08-17T19:42:57;21.60;1.00
7014;DHT22;3547;50.774;12.918;2023-08-17T19:45:34;21.40;1.00
7014;DHT22;3547;50.774;12.918;2023-08-17T19:52:04;21.30;1.00
7014;DHT22;3547;50.774;12.918;2023-08-17T19:54:32;21.30;1.00
7014;DHT22;3547;50.774;12.918;2023-08-17T19:56:59;21.10;1.00
7014;DHT22;3547;50.774;12.918;2023-08-17T19:59:35;21.10;1.00
7014;DHT22;3547;50.774;12.918;2023-08-17T20:02:08;21.10;1.00
7014;DHT22;3547;50.774;12.918;2023-08-17T20:04:51;21.10;1.00
7014;DHT22;3547;50.774;12.918;2023-08-17T20:10:55;21.00;1.00
7014;DHT22;3547;50.774;12.918;2023-08-17T20:16:08;20.70;1.00
7014;DHT22;3547;50.774;12.918;2023-08-17T20:18:36;20.70;1.00
7014;DHT22;3547;50.774;12.918;2023-08-17T20:21:57;20.60;1.00
7014;DHT22;3547;50.774;12.918;2023-08-17T23:17:02;18.90;1.00
7014;DHT22;3547;50.774;12.918;2023-08-17T23:19:36;19.00;1.00
7014;DHT22;3547;50.774;12.918;2023-08-17T23:42:38;18.80;1.00
7014;DHT22;3547;50.774;12.918;2023-08-17T23:45:10;18.80;1.00
7014;DHT22;3547;50.774;12.918;2023-08-17T23:48:36;18.90;1.00
7014;DHT22;3547;50.774;12.918;2023-08-17T23:51:22;18.90;1.00
7014;DHT22;3547;50.774;12.918;2023-08-17T23:54:27;18.80;1.00
7014;DHT22;3547;50.774;12.918;2023-08-17T23:57:15;18.80;1.00
